Flight Track Log - Related Links

Times and Time Zones

All times are in EDT time to prevent confusion due to time zone crossing. See the TRS473 flight status page for this flight to view local times or setup timezone preferences in your user account.

Time Position Orientation Groundspeed Altitude Reporting Facility
EDT Latitude Longitude Course Direction KTS MPH feet Rate Location/Type
Sat 02:43:35 PM 27.8833 -82.6167 219° Southwest 248 285 3,600  Level Tampa TRACON
Sat 02:44:29 PM 27.8333 -82.6667 221° Southwest 266 306 6,000 2,421 Climbing Tampa TRACON
Sat 02:45:29 PM 27.7667 -82.6333 156° South 288 331 8,200 1,125 Climbing Tampa TRACON
Sat 02:47:09 PM 27.6508 -82.5717 155° Southeast 310 357 9,000 975 Climbing Miami Center
Sat 02:48:09 PM 27.5736 -82.5747 182° South 293 337 10,800 1,000 Climbing Miami Center
Sat 02:49:09 PM 27.4772 -82.5839 185° South 313 360 11,000 100 Climbing Miami Center
Sat 02:50:09 PM 27.3808 -82.5933 185° South 338 389 11,000 -50 Level Miami Center
Sat 02:51:09 PM 27.2864 -82.6047 186° South 349 402 10,900  Descending Miami Center
Sat 02:52:09 PM 27.1944 -82.6119 184° South 349 402 11,000 50 Climbing Miami Center
Sat 02:53:09 PM 27.1067 -82.5608 153° Southeast 341 392 11,000  Level Miami Center
Sat 02:54:09 PM 27.0300 -82.4919 141° Southeast 332 382 11,000  Level Miami Center
Sat 02:55:09 PM 26.9533 -82.4231 141° Southeast 344 396 11,000 -50 Level Miami Center
Sat 02:56:09 PM 26.8767 -82.3589 143° Southeast 350 403 10,900 -550 Descending Miami Center
Sat 02:57:09 PM 26.8119 -82.3000 141° Southeast 336 387 9,900 -1,000 Descending Miami Center
Sat 02:58:09 PM 26.7472 -82.2458 143° Southeast 307 353 8,900 -950 Descending Miami Center
Sat 02:59:09 PM 26.6822 -82.1964 146° Southeast 289 333 8,000 -1,000 Descending Miami Center
Sat 03:00:09 PM 26.6175 -82.1447 144° Southeast 289 333 6,900 -1,200 Descending Miami Center
Sat 03:01:09 PM 26.5567 -82.0956 144° Southeast 278 320 5,600 -1,400 Descending Miami Center
Sat 03:02:09 PM 26.4936 -82.0486 146° Southeast 273 314 4,100 -1,500 Descending Miami Center
Sat 03:04:00 PM 26.4234 -81.9369 110° East  Level FlightAware Approximate
Sat 03:11:00 PM 26.5333 -81.7500 50° Northeast  Level FlightAware Approximate
Sat 03:12:00 PM 26.5362 -81.7552 50° Northeast  Level Estimated
Sat 03:13:00 PM 26.5333 -81.7500 50° Northeast  Level FlightAware Approximate
Sat 03:14:00 PM 26.5362 -81.7552 50° Northeast  Level Estimated
Sat 03:15:00 PM 26.5333 -81.7500 50° Northeast  Level FlightAware Approximate
Sat 03:16:00 PM 26.5362 -81.7552 50° Northeast  Level Estimated

Login

Don't have an account? Register now (free) for customized features, flight alerts, and more!